Cereal, Canada
Current Conditions -  °F | °C
As of 2:00 AM on Sunday 21 Dec 2014 (Local Time) from CYKY Reporting Station
Few Clouds Few Clouds  
Wind Chill: 10°   Ceiling: Unl
Heat Index: 19°   Visibility: 15mi
Dew Point: 16°   Wind: 7mph
Humidity: 86%   Direction: 140°SE
Pressure: 29.4"   Gusts: NA
Location:  51.42°N, 110.8°W
Report Text: CYKY 210900Z 14006KT 15SM FEW230 M07/M09 A2940 RMK CI2 SLP991
Loading
Personal Weather Stations






























Interactive Weather Map New forecast layout! Learn more

10-Day Weather Forecast

Advertisements
Track Severe Weather on mobile